Luis Alvarez

Olheiro-Chefe - Queretaro
23 Out 2027
Sábado
Processo

Personalidade

Adaptabilidade (16) Ambição (1) Controvérsia (13) Lealdade (17) Pressão (11) Profissionalismo (12) Espírito Esportivo (1) Temperamento (16)

Perfil

Estilo de Treinamento Democrático
Licença Nacional A
Determinação 7
Gestão de Pessoas 6
Motivação 4
Disciplina 6
Satisfação no Trabalho
100%
Fadiga
0%
Função Olheiro-Chefe
Salário 22.6K p/s
Contrato 14.03.2028

Desempenho

Comportamento Bom
Eficácia do Treinamento
43%
Desenvolvimento do Jogador
45%
Prevenção de Lesões
60%
Implementação Tática
25%

Eventos Recentes

Participou de uma reunião de recrutamento agora
Recomendou um alvo de transferência agora
Recomendou um alvo de transferência agora
Participou de uma reunião de recrutamento 7d atrás
Recomendou um alvo de transferência 7d atrás
Recomendou um alvo de transferência 7d atrás
Participou de uma reunião de recrutamento 7d atrás
Recomendou um alvo de transferência 7d atrás

Monitorando agora

99
Jogador Clube Status Habilidade Confiança Observado Última observação Último voto
Mathias Jørgensen Blackburn Rovers Ativo 127 / 124 40% 1 12.07.2027 -
Facundo Castelli Estudiantes Negociando 114 / 117 40% 1 12.07.2027 -
Adam Jakobsen Castellón Ativo 121 / 130 40% 1 05.07.2027 -
García Pascual Cádiz Ativo 122 / 134 40% 1 05.07.2027 -
Yusi Alavés Ativo 116 / 143 40% 4 29.06.2027 -
Godwin Oham Warri Wolves Ativo 74 / 99 40% 1 29.06.2027 -
Kazunari Kita Real Sociedad Ativo 94 / 109 40% 1 03.06.2027 -
Javier Ramirez Veracruz Perdido 89 / 99 69% 1 01.06.2027 -
Ozziel Herrera Real Madrid Ativo 126 / 127 66% 1 01.06.2027 Aprovar
Nazareno Roselli Defensa y Justicia Ativo 118 / 121 40% 2 31.05.2027 -
Sam Curtis Swindon Town Ativo 115 / 106 40% 1 31.05.2027 -
Enzo Cardozo Virtus Entella Ativo 94 / 112 40% 4 27.05.2027 -
Mattia Puzone Siracusa Ativo 98 / 113 40% 1 27.05.2027 -
Maeson King Blackpool Ativo 115 / 103 40% 1 26.05.2027 -
Izan Merino Málaga Ativo 126 / 119 40% 3 23.05.2027 -
Gonçalo Oliveira Benfica Ativo 124 / 107 40% 1 23.05.2027 -
Gustavo Albarracín Alavés Ativo 113 / 110 40% 1 20.05.2027 -
Sebastián Flores Rayo Vallecano Ativo 117 / 110 40% 5 19.05.2027 -
Camilo Rey Domenech Racing Club Ativo 115 / 120 40% 1 19.05.2027 -
Jonathan De Irastorza Levante Ativo 121 / 116 40% 3 16.05.2027 -
Sergio Castillo Cortulua Ativo 93 / 104 40% 2 12.05.2027 -
Abraham Paintsil Hasaacas Ativo 86 / 88 40% 1 12.05.2027 -
Pietro Reggiori Pro Patria Ativo 92 / 101 40% 2 11.05.2027 -
Juan Giménez Rosario Central Ativo 113 / 114 40% 1 09.05.2027 -
Christos Mouzakitis Hull City Ativo 142 / 126 40% 3 05.05.2027 -
Yussif Saidu Zaragoza Ativo 110 / 119 40% 2 05.05.2027 -
Samuel Lucero Defensa y Justicia Ativo 120 / 124 40% 1 03.05.2027 -
Edwin Asamoah Berekum Chelsea Ativo 84 / 78 40% 1 02.05.2027 -
Daniel Kelly Derby County Ativo 102 / 127 40% 1 02.05.2027 -
Edmund Inusah WAFA Ativo 91 / 80 40% 1 01.05.2027 -
Tommaso Cecotti Carpi Ativo 84 / 101 40% 1 30.04.2027 -
Alpha Touré FC Metz Ativo 109 / 115 40% 2 29.04.2027 -
Jon Garro Real Sociedad Ativo 97 / 93 40% 1 26.04.2027 -
Obed Vargas Atlético Madrid Ativo 108 / 120 40% 2 22.04.2027 -
Alan Morinigo Olimpia Ativo 111 / 112 40% 1 22.04.2027 -
Martim Cunha Porto Ativo 92 / 113 40% 1 19.04.2027 -
Héctor Fort Real Sociedad Ativo 122 / 140 40% 1 19.04.2027 -
Dylan Lawlor Cardiff City Ativo 107 / 118 40% 1 17.04.2027 -
Eliás Montiel Atlético Madrid Ativo 120 / 142 40% 1 17.04.2027 -
Lucas Jetten Cambuur Ativo 112 / 128 40% 1 16.04.2027 -
Caleb Yirenkyi Coventry City Ativo 122 / 139 40% 2 14.04.2027 -
Jofre Torrents Ajax Ativo 122 / 131 40% 1 09.04.2027 -
Agustín Medina Lanús Ativo 118 / 132 40% 1 06.04.2027 -
Marcelo Flores Tigres Ativo 130 / 116 40% 2 13.01.2027 -
Diego Lainez Tigres Ativo 128 / 128 70% 1 01.01.2027 Aprovar
Chicharito Ativo 123 / 123 67% 1 01.01.2027 Aprovar
João Simões Sporting CP Ativo 121 / 129 40% 1 01.01.2027 -
Lautaro Quiroga Defensa y Justicia Ativo 111 / 108 40% 1 01.01.2027 -
Bryan González Guadalajara Ativo 136 / 126 40% 1 31.12.2026 -
Brian Gutiérrez Guadalajara Ativo 119 / 128 40% 2 30.12.2026 -
Alex Luna Instituto Ativo 128 / 128 40% 5 30.12.2026 -
Kyriani Sabbe Club Brugge Ativo 137 / 124 40% 2 30.12.2026 -
Manuel Duarte Barracas Central Ativo 126 / 117 40% 2 28.12.2026 -
Relebohile Mofokeng Orlando Pirates Ativo 127 / 133 40% 1 26.12.2026 -
Rodrigo González Aldosivi Ativo 124 / 126 40% 1 25.12.2026 -
César Huerta Pumas UNAM Ativo 124 / 119 40% 1 24.12.2026 Mais informações
Mathías Tomás Puebla Ativo 110 / 114 40% 1 24.12.2026 -
Matías Pellegrini Vélez Ativo 111 / 119 40% 1 23.12.2026 -
Petar Stanić Ludogorets Ativo 122 / 142 40% 1 22.12.2026 -
John Mercado Sparta Prague Ativo 110 / 129 40% 1 22.12.2026 -
Aarón Molinas Defensa y Justicia Ativo 124 / 122 40% 4 20.12.2026 -
Juan Bisanz Huracán Ativo 119 / 127 40% 3 19.12.2026 -
Jaminton Campaz Rosario Central Ativo 129 / 129 40% 1 19.12.2026 -
Martín Ortega Newell's Old Boys Ativo 132 / 121 40% 1 16.12.2026 -
Yuber Quiñónes Deportivo Pereira Ativo 128 / 113 40% 2 15.12.2026 -
Franco Díaz Temperley Ativo 132 / 121 40% 1 15.12.2026 -
Joaquín Gho Argentinos Juniors Ativo 134 / 124 40% 4 12.12.2026 -
Rumarn Burrell Queens Park Rangers Ativo 142 / 130 40% 3 12.12.2026 -
Alexander Díaz Deportivo Riestra Ativo 107 / 119 40% 1 11.12.2026 -
Diego Pavia Barracas Central Ativo 97 / 97 40% 1 09.12.2026 -
Joaquín García Vélez Ativo 122 / 132 40% 3 08.12.2026 -
Matías Fernández Independiente Rivadavia Ativo 119 / 125 40% 2 08.12.2026 -
Matko Miljevic Racing Club Ativo 139 / 130 40% 1 05.12.2026 -
Ramiro Ruiz Rodríguez Atlético Tucumán Ativo 112 / 124 40% 1 05.12.2026 -
Rodrigo Huescas FC Copenhagen Ativo 136 / 134 40% 1 04.12.2026 -
Fernando Martínez Central Córdoba SdE Ativo 118 / 120 40% 1 04.12.2026 -
Julián Palacios Unión de Santa Fe Ativo 122 / 114 40% 2 30.11.2026 -
Jorge Ruvalcaba New York Red Bulls Ativo 122 / 116 40% 1 29.11.2026 -
Augusto Schott Talleres Ativo 133 / 116 40% 1 24.11.2026 -
Rodrigo Herrera Newell's Old Boys Ativo 114 / 123 40% 3 23.11.2026 -
Martín Garay Tigre Ativo 121 / 116 40% 1 18.11.2026 -
Alan Lescano Argentinos Juniors Ativo 118 / 127 40% 1 18.11.2026 -
Tobías Andrada Betis Ativo 127 / 136 40% 1 15.11.2026 -
Juan Oviedo Gimnasia y Tiro Ativo 78 / 95 40% 1 12.11.2026 -
Mateo Ovalle Argentinos Juniors Ativo 94 / 106 40% 1 12.11.2026 -
Nazareno Kihm Ferro Carril Oeste Ativo 114 / 111 40% 1 11.11.2026 -
Ignacio Schor O'Higgins Ativo 121 / 124 40% 1 08.11.2026 -
Siro Rosané Estudiantes Ativo 127 / 124 40% 1 05.11.2026 -
Alejandro Piedrahita Deportivo Pereira Ativo 120 / 120 40% 1 05.11.2026 -
Federico Pérez Agropecuario Argentino Ativo 120 / 115 40% 1 11.10.2026 -
Valentín Serrano Arsenal Ativo 101 / 112 40% 1 11.10.2026 -
Ramón González Almirante Brown Ativo 110 / 117 40% 1 10.10.2026 -
Martín Campos Ferro Carril Oeste Ativo 125 / 119 40% 1 09.10.2026 -
Tiago Palacios Estudiantes Ativo 119 / 134 40% 1 09.10.2026 -
Gastón Benedetti Estudiantes Ativo 130 / 125 40% 1 08.10.2026 -
Alejo Dramisino Atlanta Ativo 122 / 114 40% 1 07.10.2026 -
Santiago González Tigre Ativo 136 / 124 40% 1 07.10.2026 -
Tomás Galván River Plate Ativo 130 / 132 40% 1 06.10.2026 -
Javier Altamirano Universidad de Chile Ativo 134 / 129 40% 1 05.10.2026 -